sensor_id;sensor_type;location;lat;lon;timestamp;temperature;humidity
5956;DHT22;3004;48.080;11.600;2023-05-07T00:00:43;9.30;99.90
5956;DHT22;3004;48.080;11.600;2023-05-07T00:03:10;9.30;99.90
5956;DHT22;3004;48.080;11.600;2023-05-07T00:13:02;9.30;99.90
5956;DHT22;3004;48.080;11.600;2023-05-07T00:32:52;9.20;99.90
5956;DHT22;3004;48.080;11.600;2023-05-07T00:35:24;9.10;99.90
5956;DHT22;3004;48.080;11.600;2023-05-07T00:37:51;9.10;99.90
5956;DHT22;3004;48.080;11.600;2023-05-07T00:40:20;9.00;99.90
5956;DHT22;3004;48.080;11.600;2023-05-07T00:42:50;9.00;99.90
5956;DHT22;3004;48.080;11.600;2023-05-07T00:45:26;9.10;99.90
5956;DHT22;3004;48.080;11.600;2023-05-07T00:48:00;9.00;99.90
5956;DHT22;3004;48.080;11.600;2023-05-07T00:50:35;9.00;99.90
5956;DHT22;3004;48.080;11.600;2023-05-07T00:53:02;8.90;99.90
5956;DHT22;3004;48.080;11.600;2023-05-07T00:55:29;8.90;99.90
5956;DHT22;3004;48.080;11.600;2023-05-07T00:57:58;8.90;99.90
5956;DHT22;3004;48.080;11.600;2023-05-07T01:00:27;8.80;99.90
5956;DHT22;3004;48.080;11.600;2023-05-07T01:12:25;8.80;99.90
5956;DHT22;3004;48.080;11.600;2023-05-07T01:14:55;8.80;99.90
5956;DHT22;3004;48.080;11.600;2023-05-07T01:17:26;8.80;99.90
5956;DHT22;3004;48.080;11.600;2023-05-07T01:19:58;8.80;99.90
5956;DHT22;3004;48.080;11.600;2023-05-07T01:22:33;8.80;99.90
5956;DHT22;3004;48.080;11.600;2023-05-07T01:25:02;8.80;99.90
5956;DHT22;3004;48.080;11.600;2023-05-07T01:27:34;8.80;99.90
5956;DHT22;3004;48.080;11.600;2023-05-07T01:37:15;8.70;99.90
5956;DHT22;3004;48.080;11.600;2023-05-07T01:39:55;8.70;99.90
5956;DHT22;3004;48.080;11.600;2023-05-07T01:49:02;8.60;99.90
5956;DHT22;3004;48.080;11.600;2023-05-07T01:54:53;8.50;99.90
5956;DHT22;3004;48.080;11.600;2023-05-07T01:57:21;8.50;99.90
5956;DHT22;3004;48.080;11.600;2023-05-07T01:59:48;8.40;99.90
5956;DHT22;3004;48.080;11.600;2023-05-07T02:02:16;8.50;99.90
5956;DHT22;3004;48.080;11.600;2023-05-07T02:04:49;8.40;99.90
5956;DHT22;3004;48.080;11.600;2023-05-07T02:10:46;8.50;99.90
5956;DHT22;3004;48.080;11.600;2023-05-07T02:13:33;8.40;99.90
5956;DHT22;3004;48.080;11.600;2023-05-07T03:52:12;7.90;99.90
5956;DHT22;3004;48.080;11.600;2023-05-07T03:54:58;7.80;99.90
5956;DHT22;3004;48.080;11.600;2023-05-07T03:58:17;7.80;99.90
5956;DHT22;3004;48.080;11.600;2023-05-07T04:04:51;7.80;99.90
5956;DHT22;3004;48.080;11.600;2023-05-07T04:14:32;7.60;99.90
5956;DHT22;3004;48.080;11.600;2023-05-07T04:20:51;7.60;99.90
5956;DHT22;3004;48.080;11.600;2023-05-07T04:23:31;7.50;99.90
5956;DHT22;3004;48.080;11.600;2023-05-07T04:26:15;7.60;99.90
5956;DHT22;3004;48.080;11.600;2023-05-07T04:29:00;7.60;99.90
5956;DHT22;3004;48.080;11.600;2023-05-07T04:34:50;7.60;99.90
5956;DHT22;3004;48.080;11.600;2023-05-07T04:41:25;7.60;99.90
5956;DHT22;3004;48.080;11.600;2023-05-07T06:14:15;12.70;99.90
5956;DHT22;3004;48.080;11.600;2023-05-07T06:16:41;12.90;99.90
5956;DHT22;3004;48.080;11.600;2023-05-07T06:19:08;13.00;99.90
5956;DHT22;3004;48.080;11.600;2023-05-07T06:21:35;13.60;99.90
5956;DHT22;3004;48.080;11.600;2023-05-07T06:24:02;13.90;99.90
5956;DHT22;3004;48.080;11.600;2023-05-07T06:26:29;14.10;99.90
5956;DHT22;3004;48.080;11.600;2023-05-07T06:28:55;14.30;99.90
5956;DHT22;3004;48.080;11.600;2023-05-07T06:31:29;14.30;99.90
5956;DHT22;3004;48.080;11.600;2023-05-07T06:34:06;14.50;99.90
5956;DHT22;3004;48.080;11.600;2023-05-07T07:08:16;16.20;99.90
5956;DHT22;3004;48.080;11.600;2023-05-07T07:18:22;16.40;99.90
5956;DHT22;3004;48.080;11.600;2023-05-07T07:24:54;16.80;99.90
5956;DHT22;3004;48.080;11.600;2023-05-07T07:27:32;17.00;99.90
5956;DHT22;3004;48.080;11.600;2023-05-07T07:30:05;17.10;99.90
5956;DHT22;3004;48.080;11.600;2023-05-07T09:06:18;19.10;99.90
5956;DHT22;3004;48.080;11.600;2023-05-07T09:45:18;19.40;99.90
5956;DHT22;3004;48.080;11.600;2023-05-07T09:48:13;19.40;99.90
5956;DHT22;3004;48.080;11.600;2023-05-07T09:51:18;19.40;99.90
5956;DHT22;3004;48.080;11.600;2023-05-07T09:54:02;19.60;99.90
5956;DHT22;3004;48.080;11.600;2023-05-07T09:56:50;19.80;99.90
5956;DHT22;3004;48.080;11.600;2023-05-07T09:59:42;19.80;99.90
5956;DHT22;3004;48.080;11.600;2023-05-07T10:02:11;20.00;99.90
5956;DHT22;3004;48.080;11.600;2023-05-07T10:04:40;20.00;99.90
5956;DHT22;3004;48.080;11.600;2023-05-07T10:07:35;19.90;99.90
5956;DHT22;3004;48.080;11.600;2023-05-07T10:10:12;19.70;99.90
5956;DHT22;3004;48.080;11.600;2023-05-07T10:12:41;19.60;99.90
5956;DHT22;3004;48.080;11.600;2023-05-07T10:18:32;19.50;99.90
5956;DHT22;3004;48.080;11.600;2023-05-07T10:21:11;19.90;99.90
5956;DHT22;3004;48.080;11.600;2023-05-07T10:23:59;19.90;99.90
5956;DHT22;3004;48.080;11.600;2023-05-07T10:26:31;19.90;99.90
5956;DHT22;3004;48.080;11.600;2023-05-07T10:29:06;19.60;99.90
5956;DHT22;3004;48.080;11.600;2023-05-07T10:31:51;19.50;99.90
5956;DHT22;3004;48.080;11.600;2023-05-07T10:37:42;19.80;99.90
5956;DHT22;3004;48.080;11.600;2023-05-07T10:40:44;19.80;99.90
5956;DHT22;3004;48.080;11.600;2023-05-07T10:46:42;19.60;99.90
5956;DHT22;3004;48.080;11.600;2023-05-07T10:49:25;20.00;99.90
5956;DHT22;3004;48.080;11.600;2023-05-07T10:52:22;20.10;99.90
5956;DHT22;3004;48.080;11.600;2023-05-07T10:55:20;20.20;99.90
5956;DHT22;3004;48.080;11.600;2023-05-07T10:58:31;20.40;99.90
5956;DHT22;3004;48.080;11.600;2023-05-07T11:01:12;20.30;99.90
5956;DHT22;3004;48.080;11.600;2023-05-07T11:07:40;20.10;99.90
5956;DHT22;3004;48.080;11.600;2023-05-07T11:10:08;20.40;99.90
5956;DHT22;3004;48.080;11.600;2023-05-07T11:16:17;20.10;99.90
5956;DHT22;3004;48.080;11.600;2023-05-07T11:18:47;20.00;99.90
5956;DHT22;3004;48.080;11.600;2023-05-07T11:21:36;20.10;99.90
5956;DHT22;3004;48.080;11.600;2023-05-07T11:24:14;20.10;99.90
5956;DHT22;3004;48.080;11.600;2023-05-07T11:26:57;20.30;99.90
5956;DHT22;3004;48.080;11.600;2023-05-07T11:29:31;20.40;99.90
5956;DHT22;3004;48.080;11.600;2023-05-07T11:32:13;20.40;99.90
5956;DHT22;3004;48.080;11.600;2023-05-07T11:35:31;20.40;99.90
5956;DHT22;3004;48.080;11.600;2023-05-07T11:38:26;20.50;99.90
5956;DHT22;3004;48.080;11.600;2023-05-07T11:41:13;20.20;99.90
5956;DHT22;3004;48.080;11.600;2023-05-07T11:44:05;20.20;99.90
5956;DHT22;3004;48.080;11.600;2023-05-07T11:56:51;20.90;99.90
5956;DHT22;3004;48.080;11.600;2023-05-07T11:59:48;20.60;99.90
5956;DHT22;3004;48.080;11.600;2023-05-07T12:02:47;20.70;99.90
5956;DHT22;3004;48.080;11.600;2023-05-07T12:05:35;20.60;99.90
5956;DHT22;3004;48.080;11.600;2023-05-07T12:08:03;20.70;99.90
5956;DHT22;3004;48.080;11.600;2023-05-07T12:14:06;20.70;99.90
5956;DHT22;3004;48.080;11.600;2023-05-07T12:16:33;20.60;99.90
5956;DHT22;3004;48.080;11.600;2023-05-07T12:19:01;20.60;99.90
5956;DHT22;3004;48.080;11.600;2023-05-07T12:21:34;20.60;99.90
5956;DHT22;3004;48.080;11.600;2023-05-07T12:24:55;20.80;99.90
5956;DHT22;3004;48.080;11.600;2023-05-07T12:27:55;20.80;99.90
5956;DHT22;3004;48.080;11.600;2023-05-07T12:31:07;21.10;99.90
5956;DHT22;3004;48.080;11.600;2023-05-07T12:33:46;20.80;99.90
5956;DHT22;3004;48.080;11.600;2023-05-07T12:36:17;20.60;99.90
5956;DHT22;3004;48.080;11.600;2023-05-07T12:39:08;20.80;99.90
5956;DHT22;3004;48.080;11.600;2023-05-07T12:41:54;20.80;99.90
5956;DHT22;3004;48.080;11.600;2023-05-07T12:44:24;21.00;99.90
5956;DHT22;3004;48.080;11.600;2023-05-07T12:47:25;20.80;99.90
5956;DHT22;3004;48.080;11.600;2023-05-07T12:50:13;20.80;99.90
5956;DHT22;3004;48.080;11.600;2023-05-07T12:53:04;20.80;99.90
5956;DHT22;3004;48.080;11.600;2023-05-07T12:58:50;20.50;99.90
5956;DHT22;3004;48.080;11.600;2023-05-07T13:10:36;20.60;99.90
5956;DHT22;3004;48.080;11.600;2023-05-07T13:13:24;20.60;99.90
5956;DHT22;3004;48.080;11.600;2023-05-07T13:16:08;20.60;99.90
5956;DHT22;3004;48.080;11.600;2023-05-07T13:18:56;20.50;99.90
5956;DHT22;3004;48.080;11.600;2023-05-07T13:31:42;20.80;99.90
5956;DHT22;3004;48.080;11.600;2023-05-07T13:34:18;20.90;99.90
5956;DHT22;3004;48.080;11.600;2023-05-07T13:37:05;20.80;99.90
5956;DHT22;3004;48.080;11.600;2023-05-07T13:39:49;20.90;99.90
5956;DHT22;3004;48.080;11.600;2023-05-07T13:42:25;20.80;99.90
5956;DHT22;3004;48.080;11.600;2023-05-07T13:45:21;20.80;99.90
5956;DHT22;3004;48.080;11.600;2023-05-07T13:47:59;20.60;99.90
5956;DHT22;3004;48.080;11.600;2023-05-07T13:50:26;20.50;99.90
5956;DHT22;3004;48.080;11.600;2023-05-07T13:53:03;20.60;99.90
5956;DHT22;3004;48.080;11.600;2023-05-07T13:55:41;20.60;99.90
5956;DHT22;3004;48.080;11.600;2023-05-07T13:58:08;20.60;99.90
5956;DHT22;3004;48.080;11.600;2023-05-07T14:00:43;20.50;99.90
5956;DHT22;3004;48.080;11.600;2023-05-07T14:03:14;20.50;99.90
5956;DHT22;3004;48.080;11.600;2023-05-07T14:05:42;20.60;99.90
5956;DHT22;3004;48.080;11.600;2023-05-07T14:08:11;20.70;99.90
5956;DHT22;3004;48.080;11.600;2023-05-07T14:10:51;20.90;99.90
5956;DHT22;3004;48.080;11.600;2023-05-07T14:13:18;20.90;99.90
5956;DHT22;3004;48.080;11.600;2023-05-07T14:16:08;20.90;99.90
5956;DHT22;3004;48.080;11.600;2023-05-07T14:18:37;20.70;99.90
5956;DHT22;3004;48.080;11.600;2023-05-07T14:21:34;20.50;99.90
5956;DHT22;3004;48.080;11.600;2023-05-07T14:24:10;20.40;99.90
5956;DHT22;3004;48.080;11.600;2023-05-07T14:26:39;20.50;99.90
5956;DHT22;3004;48.080;11.600;2023-05-07T14:29:06;20.50;99.90
5956;DHT22;3004;48.080;11.600;2023-05-07T14:31:33;20.50;99.90
5956;DHT22;3004;48.080;11.600;2023-05-07T14:34:05;20.50;99.90
5956;DHT22;3004;48.080;11.600;2023-05-07T14:36:31;20.50;99.90
5956;DHT22;3004;48.080;11.600;2023-05-07T14:38:59;20.40;99.90
5956;DHT22;3004;48.080;11.600;2023-05-07T14:41:26;20.50;99.90
5956;DHT22;3004;48.080;11.600;2023-05-07T14:43:55;20.30;99.90
5956;DHT22;3004;48.080;11.600;2023-05-07T14:46:26;20.30;99.90
5956;DHT22;3004;48.080;11.600;2023-05-07T14:48:53;20.30;99.90
5956;DHT22;3004;48.080;11.600;2023-05-07T14:51:21;20.30;99.90
5956;DHT22;3004;48.080;11.600;2023-05-07T14:53:50;20.30;99.90
5956;DHT22;3004;48.080;11.600;2023-05-07T14:56:27;20.30;99.90
5956;DHT22;3004;48.080;11.600;2023-05-07T14:58:54;20.30;99.90
5956;DHT22;3004;48.080;11.600;2023-05-07T15:01:21;20.30;99.90
5956;DHT22;3004;48.080;11.600;2023-05-07T15:03:56;20.30;99.90
5956;DHT22;3004;48.080;11.600;2023-05-07T15:06:28;20.20;99.90
5956;DHT22;3004;48.080;11.600;2023-05-07T15:09:01;20.20;99.90
5956;DHT22;3004;48.080;11.600;2023-05-07T15:11:28;20.20;99.90
5956;DHT22;3004;48.080;11.600;2023-05-07T15:14:04;20.20;99.90
5956;DHT22;3004;48.080;11.600;2023-05-07T15:16:31;20.30;99.90
5956;DHT22;3004;48.080;11.600;2023-05-07T15:19:04;20.20;99.90
5956;DHT22;3004;48.080;11.600;2023-05-07T15:21:33;20.30;99.90
5956;DHT22;3004;48.080;11.600;2023-05-07T15:24:01;20.40;99.90
5956;DHT22;3004;48.080;11.600;2023-05-07T15:26:29;20.40;99.90
5956;DHT22;3004;48.080;11.600;2023-05-07T15:28:56;20.30;99.90
5956;DHT22;3004;48.080;11.600;2023-05-07T15:31:37;20.30;99.90
5956;DHT22;3004;48.080;11.600;2023-05-07T15:34:32;20.40;99.90
5956;DHT22;3004;48.080;11.600;2023-05-07T15:37:41;20.40;99.90
5956;DHT22;3004;48.080;11.600;2023-05-07T15:40:17;20.20;99.90
5956;DHT22;3004;48.080;11.600;2023-05-07T15:42:46;20.10;99.90
5956;DHT22;3004;48.080;11.600;2023-05-07T15:45:13;20.10;99.90
5956;DHT22;3004;48.080;11.600;2023-05-07T15:47:52;20.00;99.90
5956;DHT22;3004;48.080;11.600;2023-05-07T15:50:42;20.00;99.90
5956;DHT22;3004;48.080;11.600;2023-05-07T15:53:12;19.90;99.90
5956;DHT22;3004;48.080;11.600;2023-05-07T15:55:42;19.90;99.90
5956;DHT22;3004;48.080;11.600;2023-05-07T15:58:09;19.90;99.90
5956;DHT22;3004;48.080;11.600;2023-05-07T16:00:37;19.80;99.90
5956;DHT22;3004;48.080;11.600;2023-05-07T16:03:14;19.80;99.90
5956;DHT22;3004;48.080;11.600;2023-05-07T16:05:51;19.80;99.90
5956;DHT22;3004;48.080;11.600;2023-05-07T16:08:23;19.70;99.90
5956;DHT22;3004;48.080;11.600;2023-05-07T16:11:02;19.70;99.90
5956;DHT22;3004;48.080;11.600;2023-05-07T16:13:31;19.70;99.90
5956;DHT22;3004;48.080;11.600;2023-05-07T16:16:00;19.60;99.90
5956;DHT22;3004;48.080;11.600;2023-05-07T16:18:40;19.60;99.90
5956;DHT22;3004;48.080;11.600;2023-05-07T16:21:21;19.70;99.90
5956;DHT22;3004;48.080;11.600;2023-05-07T16:23:49;19.70;99.90
5956;DHT22;3004;48.080;11.600;2023-05-07T16:26:17;19.60;99.90
5956;DHT22;3004;48.080;11.600;2023-05-07T16:28:44;19.60;99.90
5956;DHT22;3004;48.080;11.600;2023-05-07T16:31:11;19.60;99.90
5956;DHT22;3004;48.080;11.600;2023-05-07T16:33:38;19.60;99.90
5956;DHT22;3004;48.080;11.600;2023-05-07T16:36:09;19.60;99.90
5956;DHT22;3004;48.080;11.600;2023-05-07T16:38:39;19.50;99.90
5956;DHT22;3004;48.080;11.600;2023-05-07T16:41:13;19.40;99.90
5956;DHT22;3004;48.080;11.600;2023-05-07T16:43:46;19.40;99.90
5956;DHT22;3004;48.080;11.600;2023-05-07T16:46:13;19.30;99.90
5956;DHT22;3004;48.080;11.600;2023-05-07T16:48:44;19.30;99.90
5956;DHT22;3004;48.080;11.600;2023-05-07T16:55:13;19.30;99.90
5956;DHT22;3004;48.080;11.600;2023-05-07T16:57:43;19.20;99.90
5956;DHT22;3004;48.080;11.600;2023-05-07T17:00:34;19.20;99.90
5956;DHT22;3004;48.080;11.600;2023-05-07T17:06:42;19.10;99.90
5956;DHT22;3004;48.080;11.600;2023-05-07T17:09:15;19.00;99.90
5956;DHT22;3004;48.080;11.600;2023-05-07T17:15:16;18.90;99.90
5956;DHT22;3004;48.080;11.600;2023-05-07T17:17:57;18.80;99.90
5956;DHT22;3004;48.080;11.600;2023-05-07T17:34:34;18.70;99.90
5956;DHT22;3004;48.080;11.600;2023-05-07T17:37:25;18.60;99.90
5956;DHT22;3004;48.080;11.600;2023-05-07T17:39:53;18.50;99.90
5956;DHT22;3004;48.080;11.600;2023-05-07T17:42:29;18.50;99.90
5956;DHT22;3004;48.080;11.600;2023-05-07T17:45:01;18.50;99.90
5956;DHT22;3004;48.080;11.600;2023-05-07T17:47:28;18.50;99.90
5956;DHT22;3004;48.080;11.600;2023-05-07T17:53:22;18.40;99.90
5956;DHT22;3004;48.080;11.600;2023-05-07T17:56:34;18.30;99.90
5956;DHT22;3004;48.080;11.600;2023-05-07T17:59:37;18.30;99.90
5956;DHT22;3004;48.080;11.600;2023-05-07T18:02:07;18.20;99.90
5956;DHT22;3004;48.080;11.600;2023-05-07T18:04:44;18.20;99.90
5956;DHT22;3004;48.080;11.600;2023-05-07T18:17:54;17.90;99.90
5956;DHT22;3004;48.080;11.600;2023-05-07T18:31:02;17.60;99.90
5956;DHT22;3004;48.080;11.600;2023-05-07T18:33:37;17.60;99.90
5956;DHT22;3004;48.080;11.600;2023-05-07T19:00:37;16.80;99.90
5956;DHT22;3004;48.080;11.600;2023-05-07T19:03:27;16.70;99.90
5956;DHT22;3004;48.080;11.600;2023-05-07T19:06:26;16.50;99.90
5956;DHT22;3004;48.080;11.600;2023-05-07T19:09:01;16.50;99.90
5956;DHT22;3004;48.080;11.600;2023-05-07T19:11:41;16.40;99.90
5956;DHT22;3004;48.080;11.600;2023-05-07T19:14:29;16.30;99.90
5956;DHT22;3004;48.080;11.600;2023-05-07T19:17:19;16.30;99.90
5956;DHT22;3004;48.080;11.600;2023-05-07T19:19:57;16.20;99.90
5956;DHT22;3004;48.080;11.600;2023-05-07T19:25:55;16.10;99.90
5956;DHT22;3004;48.080;11.600;2023-05-07T19:28:41;16.00;99.90
5956;DHT22;3004;48.080;11.600;2023-05-07T19:31:20;16.00;99.90
5956;DHT22;3004;48.080;11.600;2023-05-07T20:03:40;15.50;99.90
5956;DHT22;3004;48.080;11.600;2023-05-07T20:16:48;15.90;99.90
5956;DHT22;3004;48.080;11.600;2023-05-07T20:54:19;15.70;99.90
5956;DHT22;3004;48.080;11.600;2023-05-07T21:10:32;15.70;99.90
5956;DHT22;3004;48.080;11.600;2023-05-07T21:13:12;15.60;99.90
5956;DHT22;3004;48.080;11.600;2023-05-07T21:15:58;15.60;99.90
5956;DHT22;3004;48.080;11.600;2023-05-07T21:25:37;15.40;99.90
5956;DHT22;3004;48.080;11.600;2023-05-07T22:15:33;14.50;99.90
5956;DHT22;3004;48.080;11.600;2023-05-07T22:18:39;14.40;99.90
5956;DHT22;3004;48.080;11.600;2023-05-07T22:21:32;14.20;99.90
5956;DHT22;3004;48.080;11.600;2023-05-07T22:24:24;14.10;99.90
5956;DHT22;3004;48.080;11.600;2023-05-07T22:27:53;14.00;99.90
5956;DHT22;3004;48.080;11.600;2023-05-07T22:30:22;13.90;99.90
5956;DHT22;3004;48.080;11.600;2023-05-07T22:39:33;13.60;99.90
5956;DHT22;3004;48.080;11.600;2023-05-07T22:45:08;13.40;99.90
5956;DHT22;3004;48.080;11.600;2023-05-07T22:47:40;13.40;99.90
5956;DHT22;3004;48.080;11.600;2023-05-07T22:50:10;13.50;99.90
5956;DHT22;3004;48.080;11.600;2023-05-07T22:52:46;13.40;99.90
5956;DHT22;3004;48.080;11.600;2023-05-07T22:55:22;13.40;99.90
5956;DHT22;3004;48.080;11.600;2023-05-07T22:57:59;13.40;99.90
5956;DHT22;3004;48.080;11.600;2023-05-07T23:00:51;13.30;99.90
5956;DHT22;3004;48.080;11.600;2023-05-07T23:03:34;13.40;99.90
5956;DHT22;3004;48.080;11.600;2023-05-07T23:06:01;13.30;99.90
5956;DHT22;3004;48.080;11.600;2023-05-07T23:08:31;13.30;99.90
5956;DHT22;3004;48.080;11.600;2023-05-07T23:11:01;13.20;99.90
5956;DHT22;3004;48.080;11.600;2023-05-07T23:13:28;13.10;99.90
5956;DHT22;3004;48.080;11.600;2023-05-07T23:16:00;13.10;99.90
5956;DHT22;3004;48.080;11.600;2023-05-07T23:18:29;13.00;99.90
5956;DHT22;3004;48.080;11.600;2023-05-07T23:21:00;13.00;99.90
5956;DHT22;3004;48.080;11.600;2023-05-07T23:23:36;13.00;99.90
5956;DHT22;3004;48.080;11.600;2023-05-07T23:26:21;13.00;99.90
5956;DHT22;3004;48.080;11.600;2023-05-07T23:28:50;13.00;99.90
5956;DHT22;3004;48.080;11.600;2023-05-07T23:31:21;12.90;99.90
5956;DHT22;3004;48.080;11.600;2023-05-07T23:33:48;12.90;99.90
5956;DHT22;3004;48.080;11.600;2023-05-07T23:36:38;12.90;99.90
5956;DHT22;3004;48.080;11.600;2023-05-07T23:39:11;13.10;99.90
5956;DHT22;3004;48.080;11.600;2023-05-07T23:41:44;13.10;99.90
5956;DHT22;3004;48.080;11.600;2023-05-07T23:44:26;13.10;99.90
5956;DHT22;3004;48.080;11.600;2023-05-07T23:53:47;13.10;99.90
5956;DHT22;3004;48.080;11.600;2023-05-07T23:56:17;13.00;99.90
5956;DHT22;3004;48.080;11.600;2023-05-07T23:58:46;13.00;99.90
